Time;durP1;ratioP1;P1;durP2;ratioP2;P2;SDS_P1;SDS_P2;PMS_P1;PMS_P2;Temp;Humidity;BMP_temperature;BMP_pressure;BME280_temperature;BME280_humidity;BME280_pressure;Samples;Min_cycle;Max_cycle;Signal;HPM_P1;HPM_P2
2021/03/07 00:00:47;;;;;;;22.63;14.35;;;28.10;86.00;;;;;;5044024;28;20029;-41
2021/03/07 00:03:14;;;;;;;25.67;12.85;;;28.10;86.00;;;;;;5043793;28;20039;-38
2021/03/07 00:05:40;;;;;;;18.98;11.90;;;28.10;85.60;;;;;;5043847;28;20017;-42
2021/03/07 00:08:07;;;;;;;18.67;12.02;;;28.10;85.60;;;;;;5043592;28;20145;-36
2021/03/07 00:10:34;;;;;;;21.45;12.13;;;28.10;85.40;;;;;;5044258;28;20017;-42
2021/03/07 00:13:03;;;;;;;20.35;12.95;;;28.10;85.30;;;;;;5043852;28;20025;-39
2021/03/07 00:15:30;;;;;;;56.75;45.83;;;28.10;85.60;;;;;;5042492;28;20210;-46
2021/03/07 00:17:56;;;;;;;81.78;72.85;;;28.00;85.70;;;;;;5043554;28;20364;-42
2021/03/07 00:20:23;;;;;;;70.82;60.15;;;28.00;85.50;;;;;;5044150;28;20229;-42
2021/03/07 00:22:50;;;;;;;28.80;25.23;;;28.00;85.70;;;;;;5046197;28;20352;-48
2021/03/07 00:25:18;;;;;;;26.00;19.23;;;28.00;85.50;;;;;;5043709;28;20045;-40
2021/03/07 00:27:46;;;;;;;22.67;18.80;;;28.00;85.50;;;;;;5043851;28;20051;-40
2021/03/07 00:30:17;;;;;;;36.35;28.63;;;28.00;85.50;;;;;;5043199;28;20337;-43
2021/03/07 00:32:45;;;;;;;20.83;17.63;;;28.00;85.50;;;;;;5043573;28;20022;-46
2021/03/07 00:35:13;;;;;;;50.83;45.05;;;28.00;85.30;;;;;;5053021;28;20395;-44
2021/03/07 00:37:46;;;;;;;20.40;17.92;;;28.00;85.90;;;;;;5063333;28;20048;-46
2021/03/07 00:40:13;;;;;;;17.77;15.27;;;28.00;85.60;;;;;;5063711;28;20028;-47
2021/03/07 00:42:47;;;;;;;17.38;12.05;;;28.00;85.70;;;;;;5062867;28;20032;-44
2021/03/07 00:45:15;;;;;;;11.80;10.50;;;27.90;85.60;;;;;;5054820;28;20289;-45
2021/03/07 00:47:43;;;;;;;15.05;11.63;;;27.90;85.80;;;;;;5047239;28;20017;-48
2021/03/07 00:50:15;;;;;;;18.58;10.35;;;27.90;85.60;;;;;;5047322;28;20025;-51
2021/03/07 00:52:42;;;;;;;12.35;9.45;;;27.90;85.80;;;;;;5046041;28;20381;-48
2021/03/07 00:55:09;;;;;;;11.63;9.40;;;27.80;86.10;;;;;;5047249;28;20048;-45
2021/03/07 00:57:36;;;;;;;10.27;8.60;;;27.80;86.30;;;;;;5045903;28;20025;-51
2021/03/07 01:00:19;;;;;;;10.18;8.23;;;27.80;86.20;;;;;;5047264;28;20030;-47
2021/03/07 01:02:46;;;;;;;13.40;9.25;;;27.80;86.00;;;;;;5044590;28;20025;-48
2021/03/07 01:05:13;;;;;;;19.65;12.55;;;27.80;86.40;;;;;;5046951;28;20021;-43
2021/03/07 01:07:40;;;;;;;21.92;13.20;;;27.80;86.70;;;;;;5046250;28;20070;-45
2021/03/07 01:10:32;;;;;;;22.92;14.05;;;27.80;86.50;;;;;;5046473;28;20201;-45
2021/03/07 01:12:59;;;;;;;17.75;11.18;;;27.80;86.30;;;;;;5046601;28;20035;-43
2021/03/07 01:15:30;;;;;;;17.98;10.23;;;27.80;86.60;;;;;;5046426;28;20405;-47
2021/03/07 01:17:58;;;;;;;19.40;10.05;;;27.80;86.00;;;;;;5046573;28;20080;-49
2021/03/07 01:20:25;;;;;;;19.77;8.52;;;27.90;86.00;;;;;;5046960;28;20301;-45
2021/03/07 01:22:52;;;;;;;21.63;9.63;;;27.80;85.80;;;;;;5046083;28;20032;-47
2021/03/07 01:25:20;;;;;;;14.70;9.82;;;27.90;85.90;;;;;;5046861;28;20022;-45
2021/03/07 01:27:49;;;;;;;16.10;9.55;;;27.90;85.90;;;;;;5045241;28;20276;-41
2021/03/07 01:30:19;;;;;;;20.77;10.48;;;27.90;86.00;;;;;;5046017;28;20021;-43
2021/03/07 01:32:46;;;;;;;13.23;9.35;;;27.90;86.50;;;;;;5045298;28;20279;-52
2021/03/07 01:35:15;;;;;;;16.38;9.15;;;27.90;86.10;;;;;;5045778;28;20157;-48
2021/03/07 01:37:43;;;;;;;15.80;8.48;;;27.80;86.30;;;;;;5045367;28;20025;-45
2021/03/07 01:40:18;;;;;;;10.25;8.57;;;27.80;86.40;;;;;;5046426;28;20021;-44
2021/03/07 01:42:53;;;;;;;12.10;8.63;;;27.80;86.10;;;;;;5046286;28;20021;-49
2021/03/07 01:45:24;;;;;;;14.65;9.60;;;27.80;86.30;;;;;;5046605;28;20085;-46
2021/03/07 01:47:54;;;;;;;14.50;11.02;;;27.80;86.30;;;;;;5046117;28;20085;-46
2021/03/07 01:50:23;;;;;;;14.90;10.80;;;27.80;86.60;;;;;;5046192;28;20031;-49
2021/03/07 01:52:50;;;;;;;18.85;11.77;;;27.80;86.30;;;;;;5045116;28;20013;-47
2021/03/07 01:55:19;;;;;;;19.50;10.50;;;27.80;86.30;;;;;;5045806;28;20049;-45
2021/03/07 01:57:48;;;;;;;16.02;10.07;;;27.90;86.20;;;;;;5045638;28;20037;-45
2021/03/07 02:00:16;;;;;;;13.05;8.40;;;27.90;86.00;;;;;;5045871;28;20044;-43
2021/03/07 02:02:43;;;;;;;11.30;8.38;;;27.90;86.10;;;;;;5045578;28;20021;-44
2021/03/07 02:05:16;;;;;;;10.65;8.60;;;27.90;85.90;;;;;;5046158;28;20098;-43
2021/03/07 02:07:43;;;;;;;12.48;9.18;;;27.90;85.60;;;;;;5045695;28;20063;-42
2021/03/07 02:10:12;;;;;;;13.65;9.43;;;27.90;85.60;;;;;;5045650;28;20021;-47
2021/03/07 02:12:40;;;;;;;11.35;8.30;;;27.90;85.40;;;;;;5045906;28;20021;-44
2021/03/07 02:15:09;;;;;;;15.30;8.55;;;27.90;85.40;;;;;;5044612;28;20100;-48
2021/03/07 02:17:37;;;;;;;11.85;8.40;;;27.80;85.20;;;;;;5044284;28;20025;-46
2021/03/07 02:20:09;;;;;;;10.90;7.45;;;27.80;85.10;;;;;;5044857;28;20085;-49
2021/03/07 02:22:40;;;;;;;14.90;8.40;;;27.80;84.80;;;;;;5045520;28;20041;-52
2021/03/07 02:25:10;;;;;;;48.55;33.17;;;27.80;84.60;;;;;;5044448;28;20037;-43
2021/03/07 02:27:37;;;;;;;25.40;18.45;;;27.80;84.70;;;;;;5045177;28;20336;-47
2021/03/07 02:30:12;;;;;;;11.50;9.18;;;27.80;84.20;;;;;;5045104;28;20029;-53
2021/03/07 02:32:47;;;;;;;10.48;8.50;;;27.80;83.70;;;;;;5045280;28;20026;-48
2021/03/07 02:35:19;;;;;;;14.13;8.40;;;27.80;83.50;;;;;;5045411;28;20021;-48
2021/03/07 02:37:53;;;;;;;10.63;8.10;;;27.80;83.60;;;;;;5045186;28;20310;-46
2021/03/07 02:40:25;;;;;;;11.45;7.75;;;27.80;83.30;;;;;;5045001;28;20034;-52
2021/03/07 02:42:53;;;;;;;11.32;7.10;;;27.80;83.00;;;;;;5044487;28;20029;-46
2021/03/07 02:45:22;;;;;;;11.00;7.50;;;27.80;83.00;;;;;;5044013;28;20155;-46
2021/03/07 02:47:54;;;;;;;17.20;7.13;;;27.80;82.90;;;;;;5045022;28;20009;-42
2021/03/07 02:50:26;;;;;;;9.75;6.70;;;27.80;82.80;;;;;;5045123;28;20079;-53
2021/03/07 02:53:04;;;;;;;8.38;6.28;;;27.70;82.30;;;;;;5043791;28;20017;-52
2021/03/07 02:55:34;;;;;;;8.13;6.47;;;27.70;82.30;;;;;;5045209;28;20183;-46
2021/03/07 02:58:09;;;;;;;8.43;6.47;;;27.70;82.20;;;;;;5045019;28;20209;-50
2021/03/07 03:00:37;;;;;;;7.88;6.25;;;27.70;82.10;;;;;;5044631;28;20083;-42
2021/03/07 03:03:09;;;;;;;8.98;6.90;;;27.70;82.30;;;;;;5027170;28;20017;-42
2021/03/07 03:05:38;;;;;;;8.73;6.10;;;27.70;82.40;;;;;;5045133;28;20217;-45
2021/03/07 03:08:06;;;;;;;9.45;6.50;;;27.70;82.10;;;;;;5043649;28;20167;-44
2021/03/07 03:10:34;;;;;;;7.05;5.70;;;27.70;81.90;;;;;;5044729;28;20137;-45
2021/03/07 03:13:03;;;;;;;7.90;5.40;;;27.70;82.00;;;;;;5044566;28;20197;-51
2021/03/07 03:15:31;;;;;;;7.63;5.60;;;27.60;82.00;;;;;;5044701;28;19909;-50
2021/03/07 03:17:59;;;;;;;11.52;6.60;;;27.60;82.10;;;;;;5044331;28;20248;-47
2021/03/07 03:20:27;;;;;;;8.55;6.50;;;27.60;81.60;;;;;;5044691;28;20033;-43
2021/03/07 03:22:54;;;;;;;11.02;6.88;;;27.60;82.30;;;;;;5044611;28;20226;-45
2021/03/07 03:25:21;;;;;;;12.93;7.15;;;27.60;83.10;;;;;;5044762;28;20025;-46
2021/03/07 03:27:48;;;;;;;10.73;6.53;;;27.50;84.60;;;;;;5044300;28;20047;-47
2021/03/07 03:30:20;;;;;;;8.45;6.88;;;27.50;85.10;;;;;;5044174;28;20222;-43
2021/03/07 03:32:46;;;;;;;9.25;6.70;;;27.50;85.90;;;;;;5044147;28;20190;-45
2021/03/07 03:35:17;;;;;;;10.82;7.20;;;27.50;86.10;;;;;;5044472;28;20022;-43
2021/03/07 03:37:45;;;;;;;9.30;6.60;;;27.40;86.50;;;;;;5044156;28;20029;-43
2021/03/07 03:40:21;;;;;;;7.88;5.55;;;27.40;87.50;;;;;;5043124;28;20032;-49
2021/03/07 03:42:53;;;;;;;7.60;4.90;;;27.30;88.10;;;;;;5044125;28;20020;-42
2021/03/07 03:45:21;;;;;;;8.45;5.00;;;27.20;88.40;;;;;;5044294;28;20029;-40
2021/03/07 03:47:53;;;;;;;4.63;3.72;;;27.10;88.60;;;;;;5044082;28;20210;-49
2021/03/07 03:50:20;;;;;;;6.15;4.30;;;27.10;89.00;;;;;;5043998;28;20129;-50
2021/03/07 03:52:49;;;;;;;6.18;4.03;;;27.10;89.20;;;;;;5043885;28;20017;-49
2021/03/07 03:55:20;;;;;;;7.65;3.67;;;27.00;89.60;;;;;;5042896;28;20064;-47
2021/03/07 03:57:48;;;;;;;;;;;26.90;90.10;;;;;;5044464;28;20017;-51
2021/03/07 04:00:17;;;;;;;;;;;26.90;90.00;;;;;;5044772;28;19991;-43
2021/03/07 04:02:44;;;;;;;;;;;26.90;90.30;;;;;;5044412;28;19906;-50
2021/03/07 04:05:11;;;;;;;;;;;26.80;90.40;;;;;;5044521;28;19984;-49
2021/03/07 04:07:41;;;;;;;;;;;26.80;90.40;;;;;;5044200;28;19943;-44
2021/03/07 04:10:07;;;;;;;;;;;26.70;90.60;;;;;;5044320;28;19921;-40
2021/03/07 04:12:37;;;;;;;;;;;26.80;90.60;;;;;;5044164;28;19928;-39
2021/03/07 04:15:03;;;;;;;;;;;26.70;90.60;;;;;;5044243;28;19913;-41
2021/03/07 04:17:29;;;;;;;;;;;26.70;90.70;;;;;;5042856;28;19944;-40
2021/03/07 04:19:56;;;;;;;;;;;26.70;90.70;;;;;;5046720;28;19913;-45
2021/03/07 04:22:23;;;;;;;;;;;26.70;90.70;;;;;;5048448;28;19976;-42
2021/03/07 04:24:49;;;;;;;;;;;26.60;90.70;;;;;;5048339;28;19920;-45
2021/03/07 04:27:16;;;;;;;;;;;26.60;90.70;;;;;;5048157;28;19905;-44
2021/03/07 04:29:42;;;;;;;;;;;26.50;90.90;;;;;;5048403;28;19960;-44
2021/03/07 04:32:12;;;;;;;;;;;26.50;91.20;;;;;;5048022;28;19950;-45
2021/03/07 04:34:39;;;;;;;;;;;26.50;91.10;;;;;;5048355;28;19920;-46
2021/03/07 04:37:05;;;;;;;;;;;26.50;90.90;;;;;;5048273;28;19972;-46
2021/03/07 04:39:31;;;;;;;;;;;26.40;91.10;;;;;;5048180;28;19913;-49
2021/03/07 04:41:58;;;;;;;;;;;26.40;91.30;;;;;;5048035;28;20208;-42
2021/03/07 04:44:24;;;;;;;;;;;26.50;91.60;;;;;;5048340;28;20137;-40
2021/03/07 04:46:50;;;;;;;;;;;26.50;91.40;;;;;;5047981;28;20102;-44
2021/03/07 04:49:17;;;;;;;;;;;26.50;91.20;;;;;;5048239;28;19927;-40
2021/03/07 04:51:43;;;;;;;;;;;26.40;91.40;;;;;;5047778;28;19956;-49
2021/03/07 04:54:09;;;;;;;;;;;26.40;91.40;;;;;;5048310;28;19955;-40
2021/03/07 04:56:35;;;;;;;;;;;26.30;91.30;;;;;;5048003;28;19928;-43
2021/03/07 04:59:01;;;;;;;;;;;26.30;91.40;;;;;;5048193;28;19913;-47
2021/03/07 05:01:28;;;;;;;;;;;26.30;91.70;;;;;;5047987;28;19909;-40
2021/03/07 05:03:54;;;;;;;;;;;26.20;91.40;;;;;;5047933;28;20190;-41
2021/03/07 05:06:25;;;;;;;;;;;26.20;91.30;;;;;;5047780;28;19912;-38
2021/03/07 05:08:52;;;;;;;;;;;26.20;92.00;;;;;;5047603;28;19912;-44
2021/03/07 05:11:21;;;;;;;;;;;26.20;92.10;;;;;;5048100;28;19905;-41
2021/03/07 05:13:50;;;;;;;;;;;26.20;92.20;;;;;;5048127;28;19906;-42
2021/03/07 05:16:20;;;;;;;;;;;26.20;92.10;;;;;;5047758;28;19906;-41
2021/03/07 05:18:47;;;;;;;;;;;26.10;92.20;;;;;;5047411;28;20106;-41
2021/03/07 05:21:13;;;;;;;2.45;1.20;;;26.20;92.40;;;;;;5047421;28;20205;-41
2021/03/07 05:23:40;;;;;;;1.20;0.93;;;26.10;92.30;;;;;;5046875;28;20056;-40
2021/03/07 05:26:07;;;;;;;4.40;1.27;;;26.10;92.30;;;;;;5046841;28;20039;-46
2021/03/07 05:28:35;;;;;;;2.08;1.30;;;26.10;92.30;;;;;;5046959;28;20020;-50
2021/03/07 05:31:03;;;;;;;1.90;1.20;;;26.00;92.30;;;;;;5045837;28;20028;-45
2021/03/07 05:33:31;;;;;;;2.10;1.08;;;26.10;92.50;;;;;;5046975;28;20013;-45
2021/03/07 05:35:57;;;;;;;2.05;1.00;;;26.10;92.40;;;;;;5047603;28;20276;-43
2021/03/07 05:38:24;;;;;;;1.90;1.02;;;26.10;92.50;;;;;;5046767;28;20170;-43
2021/03/07 05:40:51;;;;;;;2.40;1.38;;;26.10;92.50;;;;;;5047471;28;20033;-43
2021/03/07 05:43:18;;;;;;;1.52;1.23;;;26.10;92.50;;;;;;5046616;28;20093;-44
2021/03/07 05:45:48;;;;;;;1.90;1.38;;;26.10;92.60;;;;;;5047167;28;20294;-48
2021/03/07 05:48:15;;;;;;;1.70;1.27;;;26.10;92.60;;;;;;5046707;28;20041;-45
2021/03/07 05:50:41;;;;;;;1.50;1.15;;;26.00;92.70;;;;;;5046669;28;20053;-42
2021/03/07 05:53:08;;;;;;;3.13;1.40;;;26.00;92.60;;;;;;5046684;28;20388;-44
2021/03/07 05:55:35;;;;;;;1.80;0.85;;;26.00;92.60;;;;;;5047244;28;20030;-44
2021/03/07 05:58:04;;;;;;;1.35;1.00;;;26.00;92.60;;;;;;5046834;28;20021;-44
2021/03/07 06:00:31;;;;;;;1.63;1.20;;;26.00;92.60;;;;;;5047091;28;20082;-42
2021/03/07 06:02:57;;;;;;;;;;;26.00;92.50;;;;;;5046802;28;20370;-45
2021/03/07 06:05:23;;;;;;;;;;;26.00;92.50;;;;;;5046905;28;19983;-46
2021/03/07 06:07:50;;;;;;;;;;;26.10;92.60;;;;;;5046545;28;19905;-43
2021/03/07 06:10:16;;;;;;;;;;;26.10;92.20;;;;;;5047306;28;19944;-44
2021/03/07 06:12:43;;;;;;;;;;;26.20;92.20;;;;;;5046987;28;19905;-48
2021/03/07 06:15:10;;;;;;;;;;;26.20;92.20;;;;;;5046670;28;19905;-51
2021/03/07 06:17:44;;;;;;;;;;;26.20;92.10;;;;;;5046506;28;20148;-43
2021/03/07 06:20:12;;;;;;;;;;;26.30;92.00;;;;;;5046683;28;20154;-43
2021/03/07 06:22:39;;;;;;;;;;;26.30;92.00;;;;;;5046471;28;19905;-47
2021/03/07 06:25:07;;;;;;;;;;;26.20;91.80;;;;;;5046581;28;19913;-42
2021/03/07 06:27:33;;;;;;;;;;;26.20;91.60;;;;;;5046114;28;20154;-42
2021/03/07 06:30:17;;;;;;;;;;;26.20;91.40;;;;;;5046531;28;19984;-51
2021/03/07 06:32:49;;;;;;;;;;;26.10;91.50;;;;;;5046130;28;20190;-53
2021/03/07 06:35:18;;;;;;;;;;;26.10;91.90;;;;;;5046377;28;19939;-47
2021/03/07 06:37:53;;;;;;;;;;;26.10;91.80;;;;;;5046391;28;19912;-45
2021/03/07 06:40:46;;;;;;;;;;;26.10;91.80;;;;;;5046376;28;19905;-42
2021/03/07 06:43:23;;;;;;;;;;;26.10;91.80;;;;;;5045868;28;20153;-46
2021/03/07 06:45:49;;;;;;;;;;;26.10;91.60;;;;;;5046370;28;20062;-43
2021/03/07 06:48:15;;;;;;;;;;;26.00;91.70;;;;;;5046071;28;19927;-46
2021/03/07 06:50:52;;;;;;;;;;;26.00;91.50;;;;;;5046002;28;19917;-43
2021/03/07 06:53:30;;;;;;;;;;;26.00;91.30;;;;;;5045607;28;19901;-48
2021/03/07 06:55:57;;;;;;;;;;;26.10;91.50;;;;;;5046087;28;19913;-42
2021/03/07 06:58:23;;;;;;;;;;;26.10;91.30;;;;;;5045881;28;19980;-44
2021/03/07 07:00:49;;;;;;;;;;;26.00;91.40;;;;;;5045411;28;19909;-43
2021/03/07 07:03:16;;;;;;;;;;;26.00;91.50;;;;;;5045746;28;20178;-42
2021/03/07 07:05:44;;;;;;;;;;;26.00;91.50;;;;;;5046077;28;19940;-44
2021/03/07 07:08:11;;;;;;;;;;;25.90;91.50;;;;;;5045264;28;19947;-46
2021/03/07 07:10:49;;;;;;;;;;;25.90;91.30;;;;;;5045579;28;19913;-43
2021/03/07 07:13:15;;;;;;;;;;;25.90;91.40;;;;;;5045334;28;19908;-45
2021/03/07 07:16:03;;;;;;;;;;;25.90;91.40;;;;;;5045947;28;19937;-45
2021/03/07 07:18:31;;;;;;;;;;;25.90;91.40;;;;;;5045475;28;19964;-46
2021/03/07 07:20:58;;;;;;;;;;;25.90;91.60;;;;;;5045002;28;19916;-44
2021/03/07 07:23:25;;;;;;;;;;;25.90;91.30;;;;;;5045255;28;19933;-43
2021/03/07 07:25:51;;;;;;;;;;;25.90;91.10;;;;;;5045707;28;19915;-43
2021/03/07 07:28:18;;;;;;;;;;;25.90;91.10;;;;;;5045343;28;19944;-47
2021/03/07 07:30:52;;;;;;;;;;;25.90;90.80;;;;;;5045749;28;19920;-42
2021/03/07 07:33:25;;;;;;;;;;;25.90;90.90;;;;;;5045310;28;20184;-45
2021/03/07 07:35:52;;;;;;;;;;;25.90;90.70;;;;;;5045629;28;19909;-43
2021/03/07 07:38:19;;;;;;;;;;;25.80;90.70;;;;;;5045369;28;19908;-43
2021/03/07 07:40:45;;;;;;;;;;;25.80;90.70;;;;;;5045924;28;19909;-45
2021/03/07 07:43:11;;;;;;;;;;;25.80;90.90;;;;;;5045432;28;19901;-43
2021/03/07 07:45:38;;;;;;;;;;;25.80;91.00;;;;;;5044779;28;19916;-51
2021/03/07 07:48:05;;;;;;;;;;;25.80;91.00;;;;;;5045035;28;20058;-43
2021/03/07 07:50:31;;;;;;;;;;;25.70;91.40;;;;;;5045233;28;19909;-45
2021/03/07 07:52:57;;;;;;;;;;;25.70;91.60;;;;;;5044732;28;19901;-44
2021/03/07 07:55:53;;;;;;;;;;;25.60;91.60;;;;;;5044627;28;19909;-44
2021/03/07 07:58:35;;;;;;;;;;;25.70;91.80;;;;;;5044505;28;20212;-43
2021/03/07 08:01:02;;;;;;;;;;;25.60;91.60;;;;;;5045035;28;19909;-49
2021/03/07 08:03:39;;;;;;;;;;;25.70;91.90;;;;;;5044993;28;19901;-48
2021/03/07 08:06:06;;;;;;;;;;;25.70;92.00;;;;;;5044798;28;19980;-49
2021/03/07 08:08:33;;;;;;;;;;;25.60;91.90;;;;;;5044422;28;19901;-55
2021/03/07 08:11:01;;;;;;;;;;;25.60;91.80;;;;;;5044661;28;19913;-44
2021/03/07 08:13:27;;;;;;;;;;;25.70;91.80;;;;;;5044911;28;19901;-43
2021/03/07 08:15:54;;;;;;;;;;;25.70;91.60;;;;;;5045363;28;19983;-48
2021/03/07 08:18:21;;;;;;;;;;;25.80;91.50;;;;;;5044740;28;19901;-46
2021/03/07 08:20:47;;;;;;;;;;;25.80;91.10;;;;;;5045034;28;19909;-47
2021/03/07 08:23:14;;;;;;;;;;;25.80;91.20;;;;;;5045100;28;20117;-47
2021/03/07 08:25:47;;;;;;;;;;;25.80;91.00;;;;;;5044775;28;19954;-42
2021/03/07 08:28:33;;;;;;;;;;;25.70;90.90;;;;;;5044250;28;20265;-45
2021/03/07 08:30:59;;;;;;;;;;;25.70;90.70;;;;;;5044311;28;19913;-42
2021/03/07 08:33:27;;;;;;;;;;;25.60;90.80;;;;;;5044608;28;19901;-43
2021/03/07 08:36:19;;;;;;;;;;;25.70;90.70;;;;;;5044982;28;19920;-44
2021/03/07 08:38:51;;;;;;;;;;;25.60;90.60;;;;;;5044545;28;19911;-46
2021/03/07 08:41:25;;;;;;;;;;;25.70;90.80;;;;;;5044243;28;19977;-51
2021/03/07 08:43:51;;;;;;;;;;;25.60;90.80;;;;;;5044473;28;19947;-44
2021/03/07 08:46:19;;;;;;;;;;;25.60;90.90;;;;;;5044228;28;19936;-44
2021/03/07 08:48:53;;;;;;;;;;;25.40;91.30;;;;;;5044462;28;19964;-46
2021/03/07 08:51:28;;;;;;;;;;;25.30;91.30;;;;;;5044628;28;19919;-45
2021/03/07 08:54:00;;;;;;;;;;;25.30;91.90;;;;;;5044550;28;20165;-45
2021/03/07 08:56:26;;;;;;;;;;;25.30;91.90;;;;;;5044294;28;19901;-46
2021/03/07 08:58:53;;;;;;;;;;;25.40;91.70;;;;;;5044591;28;19963;-45
2021/03/07 09:01:19;;;;;;;;;;;25.30;92.30;;;;;;5044651;28;19908;-46
2021/03/07 09:03:52;;;;;;;;;;;25.30;92.30;;;;;;5043907;28;19901;-46
2021/03/07 09:06:19;;;;;;;;;;;25.20;92.40;;;;;;5047224;28;19901;-46
2021/03/07 09:08:45;;;;;;;;;;;25.30;92.40;;;;;;5048064;28;20101;-44
2021/03/07 09:11:11;;;;;;;;;;;25.50;92.20;;;;;;5047527;28;19976;-46
2021/03/07 09:13:49;;;;;;;;;;;25.60;91.90;;;;;;5048002;28;19915;-45
2021/03/07 09:16:16;;;;;;;;;;;25.60;91.60;;;;;;5048159;28;20066;-52
2021/03/07 09:18:42;;;;;;;;;;;25.60;92.00;;;;;;5047838;28;19951;-42
2021/03/07 09:21:09;;;;;;;;;;;25.50;92.10;;;;;;5048149;28;19901;-42
2021/03/07 09:23:37;;;;;;;;;;;25.50;91.60;;;;;;5047770;28;20190;-45
2021/03/07 09:26:10;;;;;;;;;;;25.50;91.90;;;;;;5047678;28;19901;-43
2021/03/07 09:28:47;;;;;;;;;;;25.60;91.90;;;;;;5047374;28;19943;-52
2021/03/07 09:31:31;;;;;;;;;;;25.60;92.00;;;;;;5047755;28;19912;-48
2021/03/07 09:33:58;;;;;;;;;;;25.60;92.00;;;;;;5047648;28;20138;-43
2021/03/07 09:36:25;;;;;;;;;;;25.50;92.20;;;;;;5047610;28;19976;-42
2021/03/07 09:39:05;;;;;;;;;;;25.40;92.30;;;;;;5047780;28;19937;-47
2021/03/07 09:41:31;;;;;;;;;;;25.40;92.20;;;;;;5047647;28;19901;-42
2021/03/07 09:43:59;;;;;;;;;;;25.40;92.20;;;;;;5047934;28;19909;-43
2021/03/07 09:46:25;;;;;;;;;;;25.50;92.10;;;;;;5047519;28;19901;-43
2021/03/07 09:48:56;;;;;;;;;;;25.50;92.10;;;;;;5047625;28;19901;-44
2021/03/07 09:51:26;;;;;;;;;;;25.40;92.00;;;;;;5047207;28;19927;-46
2021/03/07 09:53:53;;;;;;;;;;;25.40;92.10;;;;;;5047506;28;19990;-45
2021/03/07 09:56:33;;;;;;;;;;;25.40;92.10;;;;;;5046945;28;19901;-55
2021/03/07 09:59:13;;;;;;;;;;;25.40;91.90;;;;;;5047170;28;19947;-43
2021/03/07 10:01:40;;;;;;;;;;;25.40;91.70;;;;;;5047266;28;19901;-48
2021/03/07 10:04:23;;;;;;;;;;;25.40;91.50;;;;;;5047170;28;20251;-45
2021/03/07 10:06:50;;;;;;;;;;;25.40;91.50;;;;;;5046442;28;19905;-50
2021/03/07 10:09:16;;;;;;;;;;;25.30;91.40;;;;;;5046656;28;19916;-46
2021/03/07 10:11:54;;;;;;;;;;;25.30;91.50;;;;;;5046891;28;19912;-49
2021/03/07 10:14:23;;;;;;;;;;;25.40;91.40;;;;;;5046875;28;19916;-49
2021/03/07 10:16:50;;;;;;;;;;;25.40;91.20;;;;;;5046557;28;19932;-46
2021/03/07 10:19:16;;;;;;;;;;;25.40;91.10;;;;;;5046922;28;19909;-46
2021/03/07 10:21:45;;;;;;;;;;;25.50;90.90;;;;;;5046790;28;19901;-42
2021/03/07 10:24:16;;;;;;;;;;;25.50;90.60;;;;;;5046808;28;20092;-48
2021/03/07 10:26:43;;;;;;;;;;;25.50;90.40;;;;;;5046526;28;19901;-43
2021/03/07 10:29:21;;;;;;;;;;;25.50;90.10;;;;;;5046192;28;19913;-42
2021/03/07 10:31:59;;;;;;;;;;;25.50;90.20;;;;;;5046290;28;20177;-43
2021/03/07 10:34:31;;;;;;;;;;;25.50;90.40;;;;;;5046365;28;20053;-45
2021/03/07 10:36:58;;;;;;;;;;;25.60;90.30;;;;;;5046238;28;20088;-46
2021/03/07 10:39:24;;;;;;;;;;;25.50;90.20;;;;;;5046489;28;19909;-42
2021/03/07 10:41:50;;;;;;;;;;;25.50;90.20;;;;;;5045961;28;19908;-42
2021/03/07 10:44:23;;;;;;;;;;;25.50;90.20;;;;;;5046043;28;19909;-43
2021/03/07 10:46:50;;;;;;;;;;;25.50;90.40;;;;;;5045677;28;20186;-44
2021/03/07 10:49:18;;;;;;;;;;;25.50;90.50;;;;;;5046074;28;19933;-49
2021/03/07 10:51:44;;;;;;;;;;;25.50;90.40;;;;;;5045813;28;19920;-47
2021/03/07 10:54:10;;;;;;;;;;;25.50;90.40;;;;;;5046013;28;19909;-45
2021/03/07 10:56:38;;;;;;;;;;;25.50;90.40;;;;;;5045880;28;19901;-43
2021/03/07 10:59:04;;;;;;;;;;;25.40;90.40;;;;;;5046104;28;19909;-44
2021/03/07 11:01:31;;;;;;;;;;;25.40;91.10;;;;;;5045861;28;19945;-46
2021/03/07 11:03:57;;;;;;;;;;;25.40;90.50;;;;;;5045450;28;19980;-46
2021/03/07 11:06:23;;;;;;;;;;;25.30;91.10;;;;;;5046019;28;19938;-45
2021/03/07 11:08:50;;;;;;;;;;;25.40;90.70;;;;;;5045418;28;20097;-54
2021/03/07 11:11:17;;;;;;;;;;;25.40;90.80;;;;;;5045350;28;19904;-43
2021/03/07 11:13:43;;;;;;;;;;;25.40;90.70;;;;;;5045218;28;19908;-52
2021/03/07 11:16:09;;;;;;;;;;;25.50;91.40;;;;;;5045440;28;19908;-41
2021/03/07 11:18:36;;;;;;;;;;;25.40;91.90;;;;;;5044996;28;19925;-41
2021/03/07 11:21:03;;;;;;;;;;;25.30;92.00;;;;;;5045168;28;19901;-42
2021/03/07 11:23:29;;;;;;;;;;;25.30;92.00;;;;;;5045460;28;20012;-43
2021/03/07 11:25:55;;;;;;;;;;;25.30;92.00;;;;;;5045550;28;19909;-43
2021/03/07 11:28:21;;;;;;;;;;;25.30;92.20;;;;;;5044463;28;19908;-45
2021/03/07 11:30:47;;;;;;;;;;;25.20;92.20;;;;;;5045185;28;20090;-42
2021/03/07 11:33:14;;;;;;;;;;;25.20;92.20;;;;;;5044640;28;19908;-42
2021/03/07 11:35:40;;;;;;;;;;;25.20;92.20;;;;;;5045191;28;19913;-47
2021/03/07 11:38:06;;;;;;;;;;;25.20;92.30;;;;;;5044868;28;19925;-42
2021/03/07 11:40:32;;;;;;;;;;;25.20;92.40;;;;;;5045136;28;19946;-51
2021/03/07 11:42:58;;;;;;;;;;;25.10;92.30;;;;;;5044653;28;19986;-42
2021/03/07 11:45:25;;;;;;;;;;;25.10;92.40;;;;;;5045021;28;20200;-41
2021/03/07 11:47:51;;;;;;;;;;;25.10;92.40;;;;;;5044621;28;19905;-54
2021/03/07 11:50:17;;;;;;;;;;;25.10;92.60;;;;;;5045023;28;19955;-47
2021/03/07 11:52:43;;;;;;;;;;;25.10;92.60;;;;;;5044410;28;19913;-51
2021/03/07 11:55:10;;;;;;;;;;;25.10;92.60;;;;;;5045109;28;19947;-50
2021/03/07 11:57:36;;;;;;;;;;;25.10;93.00;;;;;;5044358;28;19905;-43
2021/03/07 12:00:06;;;;;;;;;;;25.20;93.00;;;;;;5044876;28;20158;-44
2021/03/07 12:02:33;;;;;;;;;;;25.20;92.80;;;;;;5044364;28;19924;-40
2021/03/07 12:04:59;;;;;;;;;;;25.20;92.80;;;;;;5044430;28;19905;-41
2021/03/07 12:07:25;;;;;;;;;;;25.20;92.90;;;;;;5044239;28;19905;-46
2021/03/07 12:09:51;;;;;;;;;;;25.20;92.80;;;;;;5044630;28;19904;-51
2021/03/07 12:12:18;;;;;;;;;;;25.30;92.90;;;;;;5044299;28;19988;-42
2021/03/07 12:14:44;;;;;;;;;;;25.30;92.70;;;;;;5044591;28;20085;-53
2021/03/07 12:17:10;;;;;;;;;;;25.30;92.60;;;;;;5044253;28;19940;-42
2021/03/07 12:19:36;;;;;;;;;;;25.30;92.60;;;;;;5044584;28;19972;-49
2021/03/07 12:22:03;;;;;;;;;;;25.30;92.70;;;;;;5044209;28;19904;-44
2021/03/07 12:24:29;;;;;;;;;;;25.40;92.70;;;;;;5044606;28;20128;-44
2021/03/07 12:27:04;;;;;;;;;;;25.40;92.60;;;;;;5044029;28;19912;-41
2021/03/07 12:29:38;;;;;;;;;;;25.40;92.50;;;;;;5044463;28;20184;-47
2021/03/07 12:32:04;;;;;;;;;;;25.50;92.60;;;;;;5044178;28;19915;-44
2021/03/07 12:34:31;;;;;;;;;;;25.50;92.60;;;;;;5044551;28;19920;-49
2021/03/07 12:36:58;;;;;;;;;;;25.60;92.70;;;;;;5044258;28;19951;-46
2021/03/07 12:39:24;;;;;;;;;;;25.60;92.40;;;;;;5044327;28;19905;-48
2021/03/07 12:41:50;;;;;;;;;;;25.60;92.30;;;;;;5047796;28;19905;-40
2021/03/07 12:44:16;;;;;;;;;;;25.70;92.30;;;;;;5048043;28;19984;-42
2021/03/07 12:46:42;;;;;;;;;;;25.70;92.20;;;;;;5047883;28;19905;-45
2021/03/07 12:49:08;;;;;;;;;;;25.70;92.20;;;;;;5047748;28;19943;-50
2021/03/07 12:51:35;;;;;;;;;;;25.70;92.10;;;;;;5047588;28;19913;-46
2021/03/07 12:54:02;;;;;;;;;;;25.80;92.00;;;;;;5047807;28;19940;-41
2021/03/07 12:56:30;;;;;;;;;;;25.80;91.90;;;;;;5047524;28;19908;-45
2021/03/07 12:58:56;;;;;;;;;;;25.80;91.50;;;;;;5047649;28;19909;-44
2021/03/07 13:01:22;;;;;;;;;;;25.80;91.80;;;;;;5047575;28;19901;-43
2021/03/07 13:03:48;;;;;;;;;;;25.90;91.70;;;;;;5047476;28;19909;-49
2021/03/07 13:06:15;;;;;;;;;;;25.80;91.60;;;;;;5047524;28;20193;-49
2021/03/07 13:08:41;;;;;;;;;;;25.90;91.80;;;;;;5047487;28;19943;-45
2021/03/07 13:11:07;;;;;;;;;;;25.90;91.70;;;;;;5047004;28;19904;-43
2021/03/07 13:13:35;;;;;;;;;;;25.90;91.80;;;;;;5047174;28;19905;-41
2021/03/07 13:16:01;;;;;;;;;;;26.00;91.80;;;;;;5047464;28;20117;-42
2021/03/07 13:18:27;;;;;;;;;;;26.10;91.70;;;;;;5047193;28;19987;-42
2021/03/07 13:20:54;;;;;;;;;;;26.20;91.60;;;;;;5047760;28;20089;-47
2021/03/07 13:23:20;;;;;;;;;;;26.20;91.50;;;;;;5047241;28;19901;-45
2021/03/07 13:25:49;;;;;;;;;;;26.30;91.50;;;;;;5047475;28;19912;-54
2021/03/07 13:28:16;;;;;;;;;;;26.30;91.40;;;;;;5047173;28;19975;-44
2021/03/07 13:30:42;;;;;;;;;;;26.30;91.30;;;;;;5046988;28;19933;-46
2021/03/07 13:33:09;;;;;;;;;;;26.40;91.40;;;;;;5047110;28;20039;-46
2021/03/07 13:35:36;;;;;;;;;;;26.40;91.30;;;;;;5047015;28;19913;-42
2021/03/07 13:38:02;;;;;;;;;;;26.50;91.20;;;;;;5046997;28;20208;-43
2021/03/07 13:40:29;;;;;;;;;;;26.60;91.10;;;;;;5046929;28;19939;-46
2021/03/07 13:42:57;;;;;;;;;;;26.60;91.00;;;;;;5047430;28;20031;-44
2021/03/07 13:45:27;;;;;;;;;;;26.60;91.00;;;;;;5046629;28;19959;-47
2021/03/07 13:47:54;;;;;;;;;;;26.70;90.90;;;;;;5047141;28;19909;-43
2021/03/07 13:50:21;;;;;;;;;;;26.70;90.80;;;;;;5046543;28;19908;-47